createdAt,value
2023-02-08T00:01:25.901Z,100.00
2023-02-08T00:08:15.249Z,100.00
2023-02-08T00:10:43.962Z,100.00
2023-02-08T00:13:12.397Z,100.00
2023-02-08T00:15:44.959Z,100.00
2023-02-08T00:18:15.408Z,100.00
2023-02-08T00:20:43.730Z,100.00
2023-02-08T00:23:12.837Z,100.00
2023-02-08T00:25:41.446Z,100.00
2023-02-08T00:28:13.790Z,100.00
2023-02-08T00:30:43.683Z,100.00
2023-02-08T00:33:12.225Z,100.00
2023-02-08T00:35:42.485Z,100.00
2023-02-08T00:38:10.733Z,100.00
2023-02-08T00:40:39.502Z,100.00
2023-02-08T00:43:08.119Z,100.00
2023-02-08T00:45:36.877Z,100.00
2023-02-08T00:48:05.092Z,100.00
2023-02-08T00:50:33.377Z,100.00
2023-02-08T00:53:01.832Z,100.00
2023-02-08T00:55:30.097Z,100.00
2023-02-08T00:57:58.987Z,100.00
2023-02-08T01:00:27.222Z,100.00
2023-02-08T01:02:55.453Z,100.00
2023-02-08T01:05:23.669Z,100.00
2023-02-08T01:07:51.955Z,100.00
2023-02-08T01:10:20.094Z,100.00
2023-02-08T01:12:49.988Z,100.00
2023-02-08T01:15:18.348Z,100.00
2023-02-08T01:17:46.651Z,100.00
2023-02-08T01:20:16.590Z,100.00
2023-02-08T01:22:45.133Z,100.00
2023-02-08T01:25:15.855Z,100.00
2023-02-08T01:27:44.557Z,100.00
2023-02-08T01:30:14.214Z,100.00
2023-02-08T01:32:43.275Z,100.00
2023-02-08T01:35:11.426Z,100.00
2023-02-08T01:37:39.715Z,100.00
2023-02-08T01:40:08.233Z,100.00
2023-02-08T01:42:37.046Z,100.00
2023-02-08T01:45:23.821Z,100.00
2023-02-08T01:48:03.625Z,100.00
2023-02-08T01:50:36.863Z,100.00
2023-02-08T01:53:05.043Z,100.00
2023-02-08T01:55:36.157Z,100.00
2023-02-08T01:58:05.952Z,100.00
2023-02-08T02:00:34.611Z,100.00
2023-02-08T02:03:02.818Z,100.00
2023-02-08T02:05:39.918Z,100.00
2023-02-08T02:08:09.374Z,100.00
2023-02-08T02:10:38.493Z,100.00
2023-02-08T02:13:12.277Z,100.00
2023-02-08T02:15:44.686Z,100.00
2023-02-08T02:18:14.365Z,100.00
2023-02-08T02:21:14.924Z,100.00
2023-02-08T02:24:05.554Z,100.00
2023-02-08T02:27:02.965Z,100.00
2023-02-08T02:29:40.161Z,100.00
2023-02-08T02:32:17.409Z,100.00
2023-02-08T02:35:10.808Z,100.00
2023-02-08T02:37:43.561Z,100.00
2023-02-08T02:40:45.571Z,100.00
2023-02-08T02:43:41.523Z,100.00
2023-02-08T02:46:48.980Z,100.00
2023-02-08T02:49:17.124Z,100.00
2023-02-08T02:51:57.889Z,100.00
2023-02-08T02:54:44.156Z,100.00
2023-02-08T02:57:15.116Z,100.00
2023-02-08T02:59:45.388Z,100.00
2023-02-08T03:02:14.061Z,100.00
2023-02-08T03:04:42.480Z,100.00
2023-02-08T03:07:19.990Z,100.00
2023-02-08T03:09:54.121Z,100.00
2023-02-08T03:12:22.360Z,100.00
2023-02-08T03:15:11.373Z,100.00
2023-02-08T03:18:21.685Z,100.00
2023-02-08T03:20:58.722Z,100.00
2023-02-08T03:23:41.188Z,100.00
2023-02-08T03:26:31.181Z,100.00
2023-02-08T03:29:23.493Z,100.00
2023-02-08T03:32:01.323Z,100.00
2023-02-08T03:34:46.440Z,100.00
2023-02-08T03:37:20.063Z,100.00
2023-02-08T03:39:49.754Z,100.00
2023-02-08T03:42:21.863Z,100.00
2023-02-08T03:44:59.276Z,100.00
2023-02-08T03:47:29.287Z,100.00
2023-02-08T03:49:59.373Z,100.00
2023-02-08T03:52:28.663Z,100.00
2023-02-08T03:55:06.176Z,100.00
2023-02-08T03:57:48.494Z,100.00
2023-02-08T04:00:17.389Z,100.00
2023-02-08T04:02:56.159Z,100.00
2023-02-08T04:05:24.372Z,100.00
2023-02-08T04:07:53.212Z,100.00
2023-02-08T04:10:21.412Z,100.00
2023-02-08T04:12:50.144Z,100.00
2023-02-08T04:15:18.514Z,100.00
2023-02-08T04:17:47.394Z,100.00
2023-02-08T04:20:15.701Z,100.00
2023-02-08T04:22:47.032Z,100.00
2023-02-08T04:25:15.328Z,100.00
2023-02-08T04:27:43.580Z,100.00
2023-02-08T04:30:12.341Z,100.00
2023-02-08T04:32:42.816Z,100.00
2023-02-08T04:35:10.943Z,100.00
2023-02-08T04:37:39.124Z,100.00
2023-02-08T04:40:07.646Z,100.00
2023-02-08T04:42:35.839Z,100.00
2023-02-08T04:45:04.066Z,100.00
2023-02-08T04:47:32.914Z,100.00
2023-02-08T04:50:01.363Z,100.00
2023-02-08T04:52:30.255Z,100.00
2023-02-08T04:54:58.607Z,100.00
2023-02-08T04:57:26.780Z,100.00
2023-02-08T04:59:55.474Z,100.00
2023-02-08T05:02:23.562Z,100.00
2023-02-08T05:04:51.735Z,100.00
2023-02-08T05:07:19.896Z,100.00
2023-02-08T05:09:47.968Z,100.00
2023-02-08T05:12:19.124Z,100.00
2023-02-08T05:14:47.549Z,100.00
2023-02-08T05:17:15.766Z,100.00
2023-02-08T05:19:44.235Z,100.00
2023-02-08T05:22:12.521Z,100.00
2023-02-08T05:24:41.283Z,100.00
2023-02-08T05:27:09.552Z,100.00
2023-02-08T05:29:38.025Z,100.00
2023-02-08T05:32:06.785Z,100.00
2023-02-08T05:34:37.572Z,100.00
2023-02-08T05:37:06.085Z,100.00
2023-02-08T05:39:34.254Z,100.00
2023-02-08T05:42:02.319Z,100.00
2023-02-08T05:44:31.091Z,100.00
2023-02-08T05:46:59.279Z,100.00
2023-02-08T05:49:27.438Z,100.00
2023-02-08T05:51:55.831Z,100.00
2023-02-08T05:54:24.043Z,100.00
2023-02-08T05:56:52.375Z,100.00
2023-02-08T05:59:20.699Z,100.00
2023-02-08T06:01:49.522Z,100.00
2023-02-08T06:04:17.680Z,100.00
2023-02-08T06:06:45.906Z,100.00
2023-02-08T06:09:15.512Z,100.00
2023-02-08T06:11:44.094Z,100.00
2023-02-08T06:14:14.003Z,100.00
2023-02-08T06:16:42.588Z,100.00
2023-02-08T06:19:10.909Z,100.00
2023-02-08T06:21:39.229Z,100.00
2023-02-08T06:24:07.595Z,100.00
2023-02-08T06:26:35.957Z,100.00
2023-02-08T06:29:04.707Z,100.00
2023-02-08T06:31:33.405Z,100.00
2023-02-08T06:34:01.880Z,100.00
2023-02-08T06:36:30.249Z,100.00
2023-02-08T06:38:58.482Z,100.00
2023-02-08T06:41:27.343Z,100.00
2023-02-08T06:43:55.499Z,100.00
2023-02-08T06:46:23.612Z,100.00
2023-02-08T06:48:52.032Z,100.00
2023-02-08T06:51:20.572Z,100.00
2023-02-08T06:53:49.185Z,100.00
2023-02-08T06:56:17.738Z,100.00
2023-02-08T06:58:46.239Z,100.00
2023-02-08T07:01:14.763Z,100.00
2023-02-08T07:03:43.709Z,100.00
2023-02-08T07:06:13.664Z,100.00
2023-02-08T07:08:42.339Z,100.00
2023-02-08T07:11:15.537Z,100.00
2023-02-08T07:13:47.754Z,100.00
2023-02-08T07:16:16.106Z,100.00
2023-02-08T07:18:44.292Z,100.00
2023-02-08T07:21:12.430Z,100.00
2023-02-08T07:23:41.495Z,100.00
2023-02-08T07:26:12.108Z,100.00
2023-02-08T07:28:40.775Z,100.00
2023-02-08T07:31:10.440Z,100.00
2023-02-08T07:33:38.825Z,100.00
2023-02-08T07:36:07.713Z,100.00
2023-02-08T07:38:36.552Z,100.00
2023-02-08T07:41:08.983Z,100.00
2023-02-08T07:43:38.480Z,100.00
2023-02-08T07:46:11.053Z,100.00
2023-02-08T07:48:40.446Z,100.00
2023-02-08T07:51:09.070Z,100.00
2023-02-08T07:53:38.773Z,100.00
2023-02-08T07:56:07.233Z,100.00
2023-02-08T07:58:35.999Z,100.00
2023-02-08T08:01:19.726Z,100.00
2023-02-08T08:03:51.003Z,100.00
2023-02-08T08:06:20.348Z,100.00
2023-02-08T08:08:49.926Z,100.00
2023-02-08T08:11:18.574Z,100.00
2023-02-08T08:13:47.965Z,100.00
2023-02-08T08:16:16.642Z,100.00
2023-02-08T08:18:49.584Z,100.00
2023-02-08T08:21:18.049Z,100.00
2023-02-08T08:23:46.240Z,100.00
2023-02-08T08:26:16.645Z,100.00
2023-02-08T08:28:46.893Z,100.00
2023-02-08T08:31:17.408Z,100.00
2023-02-08T08:33:45.975Z,100.00
2023-02-08T08:36:14.445Z,100.00
2023-02-08T08:38:43.137Z,100.00
2023-02-08T08:41:12.928Z,100.00
2023-02-08T08:43:41.992Z,100.00
2023-02-08T08:46:10.392Z,100.00
2023-02-08T08:48:39.213Z,100.00
2023-02-08T08:51:07.718Z,100.00
2023-02-08T08:53:37.293Z,100.00
2023-02-08T08:56:06.750Z,100.00
2023-02-08T08:58:34.947Z,100.00
2023-02-08T09:01:03.681Z,100.00
2023-02-08T09:03:32.007Z,100.00
2023-02-08T09:06:00.426Z,100.00
2023-02-08T09:08:29.119Z,100.00
2023-02-08T09:10:57.881Z,100.00
2023-02-08T09:13:26.143Z,100.00
2023-02-08T09:15:54.845Z,100.00
2023-02-08T09:18:23.015Z,100.00
2023-02-08T09:20:51.298Z,100.00
2023-02-08T09:23:19.465Z,100.00
2023-02-08T09:25:49.842Z,100.00
2023-02-08T09:28:18.408Z,100.00
2023-02-08T09:30:46.698Z,100.00
2023-02-08T09:33:15.132Z,100.00
2023-02-08T09:35:43.441Z,100.00
2023-02-08T09:38:11.865Z,100.00
2023-02-08T09:40:48.686Z,100.00
2023-02-08T09:43:24.719Z,100.00
2023-02-08T09:46:01.683Z,100.00
2023-02-08T09:48:35.130Z,100.00
2023-02-08T09:51:09.101Z,100.00
2023-02-08T09:54:03.450Z,100.00
2023-02-08T09:56:40.405Z,100.00
2023-02-08T09:59:29.837Z,100.00
2023-02-08T10:02:23.704Z,100.00
2023-02-08T10:05:00.023Z,100.00
2023-02-08T10:07:28.839Z,100.00
2023-02-08T10:09:58.954Z,100.00
2023-02-08T10:12:37.201Z,100.00
2023-02-08T10:15:08.727Z,100.00
2023-02-08T10:17:58.140Z,100.00
2023-02-08T10:20:32.721Z,100.00
2023-02-08T10:23:29.471Z,100.00
2023-02-08T10:26:10.207Z,99.98
2023-02-08T10:29:06.200Z,99.96
2023-02-08T10:32:08.485Z,99.62
2023-02-08T10:34:59.028Z,98.91
2023-02-08T10:37:34.654Z,98.15
2023-02-08T10:40:16.900Z,97.85
2023-02-08T10:42:47.661Z,97.74
2023-02-08T10:45:29.597Z,97.57
2023-02-08T10:48:03.443Z,97.14
2023-02-08T10:50:38.341Z,97.10
2023-02-08T10:53:06.633Z,97.03
2023-02-08T10:55:36.577Z,96.74
2023-02-08T10:58:14.429Z,96.19
2023-02-08T11:00:43.104Z,95.66
2023-02-08T11:03:28.569Z,94.95
2023-02-08T11:05:57.397Z,94.04
2023-02-08T11:08:27.922Z,93.84
2023-02-08T11:11:07.491Z,94.08
2023-02-08T11:13:40.516Z,94.02
2023-02-08T11:16:27.155Z,93.37
2023-02-08T11:18:59.486Z,93.14
2023-02-08T11:21:40.480Z,92.66
2023-02-08T11:24:15.229Z,93.10
2023-02-08T11:26:43.446Z,93.24
2023-02-08T11:29:16.594Z,93.31
2023-02-08T11:32:02.423Z,92.99
2023-02-08T11:34:35.777Z,93.25
2023-02-08T11:37:05.453Z,92.76
2023-02-08T11:39:40.164Z,92.86
2023-02-08T11:42:09.773Z,93.45
2023-02-08T11:44:42.505Z,93.85
2023-02-08T11:47:11.052Z,94.18
2023-02-08T11:49:41.209Z,94.25
2023-02-08T11:52:20.222Z,94.32
2023-02-08T11:54:48.562Z,94.06
2023-02-08T11:57:24.847Z,94.21
2023-02-08T11:59:53.007Z,94.07
2023-02-08T12:02:24.471Z,94.09
2023-02-08T12:04:52.649Z,94.03
2023-02-08T12:07:45.440Z,93.65
2023-02-08T12:10:19.134Z,93.49
2023-02-08T12:13:06.003Z,93.09
2023-02-08T12:15:57.391Z,93.27
2023-02-08T12:18:30.271Z,93.28
2023-02-08T12:21:11.552Z,93.28
2023-02-08T12:23:59.030Z,93.20
2023-02-08T12:26:37.566Z,93.28
2023-02-08T12:29:33.166Z,92.93
2023-02-08T12:32:30.823Z,93.00
2023-02-08T12:35:43.606Z,93.08
2023-02-08T12:38:38.383Z,92.93
2023-02-08T12:41:27.919Z,93.00
2023-02-08T12:44:02.411Z,93.16
2023-02-08T12:47:03.796Z,93.07
2023-02-08T12:49:51.168Z,92.98
2023-02-08T12:52:29.344Z,92.86
2023-02-08T12:55:06.451Z,92.72
2023-02-08T12:57:34.693Z,92.41
2023-02-08T13:00:21.414Z,92.18
2023-02-08T13:03:14.694Z,91.70
2023-02-08T13:05:53.472Z,91.55
2023-02-08T13:08:59.369Z,91.54
2023-02-08T16:22:16.778Z,95.04
2023-02-08T16:24:47.848Z,94.85
2023-02-08T16:27:26.475Z,94.66
2023-02-08T16:29:54.981Z,94.69
2023-02-08T16:32:30.053Z,94.47
2023-02-08T16:34:58.207Z,94.42
2023-02-08T16:37:31.004Z,94.23
2023-02-08T16:39:59.798Z,94.18
2023-02-08T16:42:36.940Z,94.27
2023-02-08T16:45:07.784Z,94.39
2023-02-08T16:47:36.823Z,94.35
2023-02-08T16:50:08.821Z,94.42
2023-02-08T16:52:37.508Z,94.56
2023-02-08T16:55:06.215Z,94.74
2023-02-08T16:57:51.247Z,94.59
2023-02-08T17:00:24.943Z,94.88
2023-02-08T17:02:53.574Z,95.00
2023-02-08T17:05:22.782Z,95.07
2023-02-08T17:07:51.146Z,95.07
2023-02-08T17:10:28.928Z,95.30
2023-02-08T17:13:13.248Z,95.31
2023-02-08T17:15:47.510Z,95.38
2023-02-08T17:18:16.028Z,95.50
2023-02-08T17:20:45.283Z,95.61
2023-02-08T17:23:15.653Z,95.95
2023-02-08T17:25:44.225Z,95.88
2023-02-08T17:28:16.192Z,95.89
2023-02-08T17:30:44.862Z,96.05
2023-02-08T17:33:18.635Z,96.03
2023-02-08T17:35:49.473Z,96.16
2023-02-08T17:38:18.820Z,96.03
2023-02-08T17:40:47.185Z,96.08
2023-02-08T17:43:15.474Z,96.24
2023-02-08T17:45:44.846Z,96.18
2023-02-08T17:48:16.095Z,96.23
2023-02-08T17:50:48.020Z,96.32
2023-02-08T17:53:17.372Z,96.36
2023-02-08T17:55:45.938Z,96.24
2023-02-08T17:58:15.370Z,96.25
2023-02-08T18:00:43.844Z,96.35
2023-02-08T18:03:12.609Z,96.34
2023-02-08T18:05:40.741Z,96.43
2023-02-08T18:08:08.928Z,96.41
2023-02-08T18:10:37.142Z,96.41
2023-02-08T18:13:05.625Z,96.45
2023-02-08T18:15:34.173Z,96.52
2023-02-08T18:18:02.326Z,96.50
2023-02-08T18:20:30.605Z,96.64
2023-02-08T18:22:58.965Z,96.64
2023-02-08T18:25:27.370Z,96.69
2023-02-08T18:27:56.421Z,96.82
2023-02-08T18:30:26.285Z,96.86
2023-02-08T18:32:54.557Z,97.13
2023-02-08T18:35:23.139Z,97.21
2023-02-08T18:37:53.596Z,97.39
2023-02-08T18:40:21.850Z,97.35
2023-02-08T18:42:50.068Z,97.56
2023-02-08T18:45:18.189Z,97.61
2023-02-08T18:47:46.965Z,97.78
2023-02-08T18:50:15.265Z,97.93
2023-02-08T18:52:45.147Z,98.00
2023-02-08T18:55:13.601Z,98.17
2023-02-08T18:57:41.990Z,98.35
2023-02-08T19:00:11.076Z,98.35
2023-02-08T19:02:39.857Z,98.38
2023-02-08T19:05:08.306Z,98.49
2023-02-08T19:07:39.505Z,98.38
2023-02-08T19:10:08.249Z,98.58
2023-02-08T19:12:39.087Z,98.61
2023-02-08T19:15:08.010Z,98.75
2023-02-08T19:17:36.217Z,98.80
2023-02-08T19:20:04.713Z,98.62
2023-02-08T19:22:32.940Z,98.85
2023-02-08T19:25:01.179Z,98.77
2023-02-08T19:27:29.994Z,98.97
2023-02-08T19:29:58.541Z,98.83
2023-02-08T19:32:26.913Z,98.71
2023-02-08T19:34:55.268Z,98.79
2023-02-08T19:37:23.505Z,98.83
2023-02-08T19:39:51.600Z,98.70
2023-02-08T19:42:19.786Z,98.70
2023-02-08T19:44:47.939Z,98.65
2023-02-08T19:47:16.593Z,98.77
2023-02-08T19:49:45.279Z,98.82
2023-02-08T19:52:16.278Z,99.01
2023-02-08T19:54:44.881Z,99.12
2023-02-08T19:57:14.967Z,99.15
2023-02-08T19:59:43.607Z,99.16
2023-02-08T20:02:15.429Z,99.04
2023-02-08T20:04:44.121Z,98.98
2023-02-08T20:07:12.676Z,99.01
2023-02-08T20:09:41.736Z,98.91
2023-02-08T20:12:10.019Z,98.91
2023-02-08T20:14:38.367Z,99.10
2023-02-08T20:17:07.333Z,99.07
2023-02-08T20:19:37.292Z,99.00
2023-02-08T20:22:05.454Z,98.69
2023-02-08T20:24:33.699Z,98.72
2023-02-08T20:27:02.019Z,98.69
2023-02-08T20:29:30.903Z,98.85
2023-02-08T20:31:59.923Z,98.97
2023-02-08T20:34:28.698Z,98.97
2023-02-08T20:37:12.411Z,99.16
2023-02-08T20:39:41.214Z,99.29
2023-02-08T20:42:10.233Z,99.15
2023-02-08T20:44:38.464Z,99.39
2023-02-08T20:47:06.886Z,99.41
2023-02-08T20:49:35.291Z,99.66
2023-02-08T20:52:03.494Z,99.84
2023-02-08T20:54:31.803Z,99.97
2023-02-08T20:57:00.844Z,99.99
2023-02-08T20:59:30.361Z,99.99
2023-02-08T21:01:59.062Z,100.00
2023-02-08T21:04:30.248Z,100.00
2023-02-08T21:06:58.427Z,100.00
2023-02-08T21:09:26.677Z,100.00
2023-02-08T21:11:54.851Z,100.00
2023-02-08T21:14:23.637Z,100.00
2023-02-08T21:16:56.518Z,100.00
2023-02-08T21:19:29.347Z,100.00
2023-02-08T21:22:01.349Z,100.00
2023-02-08T21:24:29.741Z,100.00
2023-02-08T21:26:58.065Z,100.00
2023-02-08T21:29:26.497Z,100.00
2023-02-08T21:31:56.418Z,100.00
2023-02-08T21:34:24.788Z,100.00
2023-02-08T21:36:53.261Z,100.00
2023-02-08T21:39:23.341Z,100.00
2023-02-08T21:41:52.135Z,100.00
2023-02-08T21:44:20.354Z,100.00
2023-02-08T21:46:48.563Z,100.00
2023-02-08T21:49:35.549Z,100.00
2023-02-08T21:52:22.439Z,100.00
2023-02-08T21:54:53.745Z,100.00
2023-02-08T21:57:22.634Z,100.00
2023-02-08T21:59:52.488Z,100.00
2023-02-08T22:02:24.713Z,100.00
2023-02-08T22:04:53.946Z,100.00
2023-02-08T22:07:23.024Z,100.00
